Time;durP1;ratioP1;P1;durP2;ratioP2;P2;SDS_P1;SDS_P2;PMS_P1;PMS_P2;Temp;Humidity;BMP_temperature;BMP_pressure;BME280_temperature;BME280_humidity;BME280_pressure;Samples;Min_cycle;Max_cycle;Signal;HPM_P1;HPM_P2
2021/12/16 00:01:48;;;;;;;7.50;4.80;;;2.30;99.90;;;;;;5006642;28;20529;-57
2021/12/16 00:10:02;;;;;;;7.10;4.80;;;2.30;99.90;;;;;;5007559;28;20603;-55
2021/12/16 00:31:46;;;;;;;7.43;4.70;;;2.30;99.90;;;;;;4990409;28;20785;-58
2021/12/16 00:34:13;;;;;;;6.80;4.47;;;2.30;99.90;;;;;;5019029;28;20416;-56
2021/12/16 00:36:44;;;;;;;6.50;4.33;;;2.30;99.90;;;;;;5010715;28;20433;-57
2021/12/16 00:39:13;;;;;;;6.63;4.80;;;2.30;99.90;;;;;;5011984;28;20438;-55
2021/12/16 00:41:41;;;;;;;6.87;4.07;;;2.30;99.90;;;;;;5006663;28;20436;-56
2021/12/16 00:44:25;;;;;;;7.93;4.60;;;2.30;99.90;;;;;;4995505;28;20478;-57
2021/12/16 00:54:34;;;;;;;7.23;4.20;;;2.30;99.90;;;;;;4996213;28;20434;-57
2021/12/16 00:57:06;;;;;;;7.87;4.53;;;2.30;99.90;;;;;;5009926;28;20490;-58
2021/12/16 00:59:36;;;;;;;5.73;4.40;;;2.20;99.90;;;;;;5011990;28;20430;-59
2021/12/16 01:50:46;;;;;;;6.20;4.00;;;2.10;99.90;;;;;;5004077;28;20424;-56
2021/12/16 01:55:49;;;;;;;10.23;4.30;;;2.10;99.90;;;;;;5005329;28;20952;-57
2021/12/16 01:58:20;;;;;;;5.30;4.30;;;2.00;99.90;;;;;;4996021;28;20203;-58
2021/12/16 02:01:09;;;;;;;6.87;4.67;;;2.00;99.90;;;;;;4996230;28;20476;-57
2021/12/16 02:03:40;;;;;;;6.30;4.60;;;2.00;99.90;;;;;;5013956;28;20475;-56
2021/12/16 02:06:25;;;;;;;5.60;4.20;;;2.00;99.90;;;;;;5004290;28;20427;-58
2021/12/16 02:08:52;;;;;;;6.57;5.03;;;2.00;99.90;;;;;;5008694;28;20567;-56
2021/12/16 02:28:13;;;;;;;8.80;4.57;;;1.90;99.90;;;;;;5008417;28;20421;-59
2021/12/16 02:33:51;;;;;;;8.57;5.40;;;1.80;99.90;;;;;;5023990;28;20578;-59
2021/12/16 02:38:50;;;;;;;12.57;6.43;;;1.80;99.90;;;;;;4996255;28;20864;-58
2021/12/16 02:41:16;;;;;;;8.50;5.23;;;1.80;99.90;;;;;;5002262;28;21079;-54
2021/12/16 02:48:44;;;;;;;7.73;5.73;;;1.90;99.90;;;;;;5027840;28;20474;-61
2021/12/16 02:51:16;;;;;;;6.93;5.17;;;1.90;99.90;;;;;;5020247;28;20442;-58
2021/12/16 02:53:49;;;;;;;8.73;5.77;;;1.90;99.90;;;;;;5002427;28;20856;-58
2021/12/16 02:56:15;;;;;;;7.60;4.90;;;1.90;99.90;;;;;;5006269;28;20426;-58
2021/12/16 02:58:44;;;;;;;5.07;4.50;;;1.90;99.90;;;;;;5006676;28;21011;-60
2021/12/16 03:01:18;;;;;;;6.33;4.27;;;1.80;99.90;;;;;;5008366;28;20461;-58
2021/12/16 03:03:44;;;;;;;5.80;4.47;;;1.90;99.90;;;;;;5012821;28;21019;-56
2021/12/16 03:06:11;;;;;;;5.33;4.27;;;1.80;99.90;;;;;;5003591;28;20457;-58
2021/12/16 03:08:39;;;;;;;4.43;3.93;;;1.80;99.90;;;;;;5002632;28;20207;-58
2021/12/16 03:11:22;;;;;;;;;;;;;;;;;;;;;
2021/12/16 03:14:15;;;;;;;10.53;4.87;;;1.80;99.90;;;;;;4993528;28;20486;-59
2021/12/16 03:16:49;;;;;;;5.90;4.57;;;1.80;99.90;;;;;;4994685;28;20435;-58
2021/12/16 03:19:43;;;;;;;5.47;4.37;;;1.80;99.90;;;;;;4992887;28;20541;-59
2021/12/16 03:22:18;;;;;;;6.33;4.57;;;1.80;99.90;;;;;;5018201;28;20420;-58
2021/12/16 03:35:31;;;;;;;6.27;4.20;;;1.80;99.90;;;;;;5002930;28;20576;-58
2021/12/16 03:38:07;;;;;;;7.90;5.07;;;1.80;99.90;;;;;;5003584;28;20517;-59
2021/12/16 03:40:35;;;;;;;6.80;4.40;;;1.80;99.90;;;;;;5003504;28;20439;-57
2021/12/16 03:43:19;;;;;;;6.10;4.10;;;1.80;99.90;;;;;;5004367;28;20551;-58
2021/12/16 03:48:38;;;;;;;5.37;3.57;;;1.80;99.90;;;;;;4999732;28;20771;-59
2021/12/16 03:51:10;;;;;;;3.33;2.93;;;1.80;99.90;;;;;;5003222;28;20481;-57
2021/12/16 03:53:36;;;;;;;3.97;3.33;;;1.80;99.90;;;;;;5005002;28;20718;-57
2021/12/16 03:56:03;;;;;;;5.53;3.17;;;1.90;99.90;;;;;;5005495;28;20838;-56
2021/12/16 03:58:29;;;;;;;4.90;3.77;;;1.90;99.90;;;;;;5003186;28;20454;-55
2021/12/16 04:00:58;;;;;;;5.00;3.73;;;1.80;99.90;;;;;;5005169;28;20442;-59
2021/12/16 04:03:25;;;;;;;8.50;4.50;;;1.80;99.90;;;;;;5004261;28;20239;-58
2021/12/16 04:05:51;;;;;;;7.73;4.27;;;1.80;99.90;;;;;;5008436;28;20431;-56
2021/12/16 04:08:17;;;;;;;5.87;4.10;;;1.80;99.90;;;;;;5006817;28;20468;-58
2021/12/16 04:10:52;;;;;;;7.20;4.20;;;1.80;99.90;;;;;;5005105;28;20427;-59
2021/12/16 04:13:19;;;;;;;7.40;4.43;;;1.80;99.90;;;;;;5007548;28;21043;-58
2021/12/16 04:15:46;;;;;;;8.47;4.67;;;1.70;99.90;;;;;;5007778;28;20465;-58
2021/12/16 04:18:12;;;;;;;11.13;4.80;;;1.70;99.90;;;;;;5007238;28;20429;-58
2021/12/16 04:20:38;;;;;;;4.60;3.57;;;1.70;99.90;;;;;;5008495;28;20462;-61
2021/12/16 04:23:07;;;;;;;3.80;3.00;;;1.70;99.90;;;;;;5026104;28;20418;-58
2021/12/16 04:25:37;;;;;;;3.13;2.53;;;1.70;99.90;;;;;;5031084;28;20417;-59
2021/12/16 04:28:07;;;;;;;2.73;2.27;;;1.60;99.90;;;;;;5030040;28;20461;-62
2021/12/16 04:30:34;;;;;;;2.83;2.60;;;1.60;99.90;;;;;;5025347;28;20438;-60
2021/12/16 04:33:00;;;;;;;3.10;2.30;;;1.60;99.90;;;;;;5030142;28;20433;-60
2021/12/16 04:35:26;;;;;;;4.03;2.57;;;1.70;99.90;;;;;;5022925;28;20644;-58
2021/12/16 04:37:53;;;;;;;3.83;2.77;;;1.70;99.90;;;;;;5006688;28;20433;-58
2021/12/16 04:40:19;;;;;;;4.47;3.10;;;1.70;99.90;;;;;;5006372;28;20272;-58
2021/12/16 04:42:47;;;;;;;5.20;3.20;;;1.70;99.90;;;;;;5005707;28;20427;-58
2021/12/16 04:45:17;;;;;;;6.87;2.97;;;1.70;99.90;;;;;;5004300;28;20458;-59
2021/12/16 04:47:43;;;;;;;3.43;3.10;;;1.70;99.90;;;;;;4999449;28;20455;-58
2021/12/16 04:50:11;;;;;;;4.00;2.73;;;1.70;99.90;;;;;;5003914;28;20968;-58
2021/12/16 04:52:37;;;;;;;6.23;3.10;;;1.70;99.90;;;;;;5009795;28;20414;-58
2021/12/16 04:55:05;;;;;;;6.47;4.13;;;1.80;99.90;;;;;;4996287;28;21286;-58
2021/12/16 04:57:31;;;;;;;5.97;3.60;;;1.80;99.90;;;;;;5012069;28;20459;-59
2021/12/16 04:59:57;;;;;;;7.87;4.13;;;1.80;99.90;;;;;;5004356;28;20505;-57
2021/12/16 05:02:26;;;;;;;6.47;4.17;;;1.80;99.90;;;;;;4995276;28;20330;-57
2021/12/16 05:04:52;;;;;;;7.00;4.03;;;1.80;99.90;;;;;;4999091;28;20187;-57
2021/12/16 05:07:19;;;;;;;8.40;4.60;;;1.80;99.90;;;;;;5001038;28;20434;-57
2021/12/16 05:10:05;;;;;;;7.43;4.77;;;1.80;99.90;;;;;;4998887;28;20269;-56
2021/12/16 05:12:41;;;;;;;7.73;4.60;;;1.80;99.90;;;;;;5005642;28;20415;-58
2021/12/16 05:15:13;;;;;;;6.10;3.70;;;1.80;99.90;;;;;;4995423;28;20456;-59
2021/12/16 05:17:45;;;;;;;7.20;5.37;;;1.90;99.90;;;;;;5003483;28;20920;-56
2021/12/16 05:20:15;;;;;;;10.00;4.07;;;1.90;99.90;;;;;;4999821;28;20943;-57
2021/12/16 05:25:49;;;;;;;8.33;4.70;;;1.80;99.90;;;;;;5006752;28;20442;-58
2021/12/16 05:28:15;;;;;;;5.40;3.80;;;1.80;99.90;;;;;;4998427;28;20430;-57
2021/12/16 05:30:41;;;;;;;6.70;4.40;;;1.80;99.90;;;;;;5012246;28;20438;-58
2021/12/16 05:33:10;;;;;;;5.63;4.27;;;1.80;99.90;;;;;;4998637;28;20433;-57
2021/12/16 05:35:36;;;;;;;4.47;3.87;;;1.80;99.90;;;;;;5001127;28;20436;-58
2021/12/16 05:38:03;;;;;;;7.67;4.70;;;1.80;99.90;;;;;;5003297;28;20436;-55
2021/12/16 05:40:29;;;;;;;5.70;4.07;;;1.80;99.90;;;;;;4990458;28;20437;-58
2021/12/16 05:42:57;;;;;;;6.27;4.60;;;1.80;99.90;;;;;;4991025;28;20430;-59
2021/12/16 05:45:24;;;;;;;8.10;5.00;;;1.80;99.90;;;;;;4998651;28;20587;-59
2021/12/16 05:47:52;;;;;;;5.03;3.93;;;1.90;99.90;;;;;;4994136;28;20441;-55
2021/12/16 05:50:18;;;;;;;6.57;4.67;;;1.80;99.90;;;;;;4995617;28;20458;-57
2021/12/16 05:52:44;;;;;;;6.70;4.83;;;1.80;99.90;;;;;;5003973;28;20564;-60
2021/12/16 05:55:17;;;;;;;7.00;4.67;;;1.80;99.90;;;;;;5001654;28;20189;-57
2021/12/16 05:57:44;;;;;;;7.70;5.10;;;1.80;99.90;;;;;;4994177;28;20773;-59
2021/12/16 06:00:18;;;;;;;6.93;4.67;;;1.80;99.90;;;;;;5001757;28;20461;-59
2021/12/16 06:02:44;;;;;;;9.00;4.53;;;1.80;99.90;;;;;;4992264;28;20417;-59
2021/12/16 06:05:10;;;;;;;8.10;4.47;;;1.80;99.90;;;;;;5002416;28;20471;-56
2021/12/16 06:07:35;;;;;;;8.40;4.17;;;1.80;99.90;;;;;;5002491;28;20439;-59
2021/12/16 06:10:03;;;;;;;8.70;4.93;;;1.80;99.90;;;;;;4997321;28;20236;-53
2021/12/16 06:12:29;;;;;;;8.60;5.20;;;1.80;99.90;;;;;;4996189;28;20178;-57
2021/12/16 06:15:17;;;;;;;8.47;4.63;;;1.80;99.90;;;;;;4995922;28;20438;-58
2021/12/16 06:28:33;;;;;;;6.77;4.37;;;1.80;99.90;;;;;;4996179;28;20963;-58
2021/12/16 06:31:00;;;;;;;9.17;5.50;;;1.80;99.90;;;;;;4993100;28;20420;-58
2021/12/16 06:33:26;;;;;;;9.57;5.47;;;1.80;99.90;;;;;;5002529;28;20918;-56
2021/12/16 06:35:53;;;;;;;8.37;5.40;;;1.80;99.90;;;;;;5005051;28;20454;-59
2021/12/16 06:38:21;;;;;;;9.23;5.30;;;1.80;99.90;;;;;;5000109;28;20464;-56
2021/12/16 06:40:48;;;;;;;10.57;5.80;;;1.80;99.90;;;;;;5016806;28;20437;-60
2021/12/16 06:43:15;;;;;;;9.13;4.90;;;1.80;99.90;;;;;;5024391;28;20445;-58
2021/12/16 06:45:45;;;;;;;10.50;5.77;;;1.80;99.90;;;;;;4994644;28;20539;-58
2021/12/16 06:48:18;;;;;;;10.43;6.00;;;1.80;99.90;;;;;;4998034;28;20591;-58
2021/12/16 06:53:13;;;;;;;6.70;4.73;;;1.70;99.90;;;;;;5006276;28;20869;-58
2021/12/16 06:55:56;;;;;;;8.43;5.00;;;1.80;99.90;;;;;;4991937;28;20421;-60
2021/12/16 07:00:51;;;;;;;10.33;5.90;;;1.80;99.90;;;;;;4997948;28;20438;-60
2021/12/16 07:03:20;;;;;;;8.30;4.67;;;1.80;99.90;;;;;;4999149;28;20424;-60
2021/12/16 07:05:53;;;;;;;9.37;4.80;;;1.80;99.90;;;;;;5000224;28;20514;-60
2021/12/16 07:08:20;;;;;;;6.63;4.93;;;1.80;99.90;;;;;;5001705;28;20448;-60
2021/12/16 07:10:48;;;;;;;6.60;4.30;;;1.70;99.90;;;;;;5003621;28;20426;-59
2021/12/16 07:13:29;;;;;;;8.70;4.37;;;1.70;99.90;;;;;;4996743;28;20420;-60
2021/12/16 07:15:56;;;;;;;9.67;5.00;;;1.70;99.90;;;;;;5002278;28;20467;-59
2021/12/16 07:18:22;;;;;;;14.17;5.60;;;1.80;99.90;;;;;;4995035;28;20496;-58
2021/12/16 07:20:47;;;;;;;8.10;4.37;;;1.80;99.90;;;;;;4993020;28;20504;-60
2021/12/16 07:23:13;;;;;;;8.60;5.03;;;1.70;99.90;;;;;;5007102;28;20496;-59
2021/12/16 07:25:40;;;;;;;9.30;5.30;;;1.80;99.90;;;;;;4993644;28;20188;-61
2021/12/16 07:28:07;;;;;;;9.67;4.93;;;1.80;99.90;;;;;;5020794;28;20654;-59
2021/12/16 07:30:37;;;;;;;10.00;5.43;;;1.80;99.90;;;;;;4992062;28;20404;-60
2021/12/16 07:33:04;;;;;;;8.93;5.20;;;1.80;99.90;;;;;;5007504;28;20433;-61
2021/12/16 07:35:31;;;;;;;8.13;4.33;;;1.80;99.90;;;;;;4996100;28;20423;-59
2021/12/16 07:37:57;;;;;;;7.00;4.50;;;1.80;99.90;;;;;;5011963;28;20698;-58
2021/12/16 07:40:26;;;;;;;10.57;5.53;;;1.80;99.90;;;;;;5011477;28;20540;-60
2021/12/16 07:45:41;;;;;;;13.47;4.80;;;1.80;99.90;;;;;;4998994;28;20433;-59
2021/12/16 07:48:07;;;;;;;6.20;4.40;;;1.80;99.90;;;;;;4997028;28;20435;-58
2021/12/16 07:50:34;;;;;;;7.53;4.03;;;1.80;99.90;;;;;;5001964;28;20581;-58
2021/12/16 07:53:00;;;;;;;9.77;4.40;;;1.80;99.90;;;;;;5006061;28;20408;-60
2021/12/16 07:55:27;;;;;;;8.80;5.83;;;1.90;99.90;;;;;;5005774;28;20438;-58
2021/12/16 07:57:52;;;;;;;9.43;4.70;;;1.90;99.90;;;;;;5000379;28;20491;-60
2021/12/16 08:00:22;;;;;;;8.50;5.80;;;1.90;99.90;;;;;;4993237;28;20620;-57
2021/12/16 08:02:48;;;;;;;9.47;5.40;;;1.90;99.90;;;;;;5008413;28;20190;-57
2021/12/16 08:05:15;;;;;;;10.53;5.17;;;1.90;99.90;;;;;;4998418;28;20461;-59
2021/12/16 08:07:41;;;;;;;13.90;7.10;;;1.90;99.90;;;;;;5006089;28;20955;-60
2021/12/16 08:10:11;;;;;;;11.80;5.77;;;2.00;99.90;;;;;;5010076;28;20517;-60
2021/12/16 08:12:38;;;;;;;9.17;4.70;;;2.00;99.90;;;;;;4997485;28;20434;-60
2021/12/16 08:15:05;;;;;;;6.33;3.80;;;2.00;99.90;;;;;;5002996;28;20432;-60
2021/12/16 08:17:31;;;;;;;4.43;3.37;;;2.10;99.90;;;;;;5009543;28;20433;-60
2021/12/16 08:19:56;;;;;;;3.23;2.93;;;2.10;99.90;;;;;;5000722;28;20535;-59
2021/12/16 08:22:22;;;;;;;4.67;3.13;;;2.10;99.90;;;;;;4998891;28;20176;-59
2021/12/16 08:24:48;;;;;;;6.10;3.40;;;2.10;99.90;;;;;;5013854;28;20281;-60
2021/12/16 08:27:14;;;;;;;6.73;4.07;;;2.10;99.90;;;;;;5012712;28;20174;-60
2021/12/16 08:29:40;;;;;;;4.67;3.57;;;2.20;99.90;;;;;;4993260;28;20515;-61
2021/12/16 08:32:06;;;;;;;4.70;3.50;;;2.20;99.90;;;;;;5009496;28;20437;-60
2021/12/16 08:34:34;;;;;;;7.97;4.47;;;2.20;99.90;;;;;;4995679;28;20427;-59
2021/12/16 08:37:02;;;;;;;9.50;4.87;;;2.20;99.90;;;;;;4999929;28;20460;-56
2021/12/16 08:39:28;;;;;;;5.30;4.37;;;2.30;99.90;;;;;;5003808;28;21204;-57
2021/12/16 08:41:56;;;;;;;11.90;5.30;;;2.30;99.90;;;;;;5006424;28;20419;-58
2021/12/16 08:44:22;;;;;;;8.20;5.40;;;2.30;99.90;;;;;;5010152;28;20458;-58
2021/12/16 08:46:51;;;;;;;8.20;5.40;;;2.30;99.90;;;;;;4998393;28;20482;-59
2021/12/16 08:49:18;;;;;;;10.17;4.90;;;2.40;99.90;;;;;;4996458;28;20466;-58
2021/12/16 08:51:48;;;;;;;15.40;5.30;;;2.40;99.90;;;;;;5010983;28;21404;-58
2021/12/16 08:54:15;;;;;;;9.23;5.43;;;2.40;99.90;;;;;;5003690;28;20418;-59
2021/12/16 08:56:43;;;;;;;9.20;6.07;;;2.40;99.90;;;;;;5005701;28;21010;-59
2021/12/16 08:59:08;;;;;;;11.73;5.30;;;2.50;99.90;;;;;;5020152;28;20457;-58
2021/12/16 09:01:39;;;;;;;16.00;7.30;;;2.50;99.90;;;;;;5011380;28;20914;-59
2021/12/16 09:04:05;;;;;;;9.47;6.47;;;2.50;99.90;;;;;;5006832;28;20628;-58
2021/12/16 09:06:31;;;;;;;19.23;5.70;;;2.60;99.90;;;;;;5009824;28;20422;-59
2021/12/16 09:08:57;;;;;;;6.50;3.93;;;2.50;99.90;;;;;;5038094;22;20498;-61
2021/12/16 09:11:25;;;;;;;8.40;4.70;;;2.60;99.90;;;;;;5016845;28;20637;-61
2021/12/16 09:13:54;;;;;;;7.30;4.50;;;2.60;99.90;;;;;;5029726;28;21060;-61
2021/12/16 09:16:22;;;;;;;8.13;4.27;;;2.60;99.90;;;;;;5027111;28;20979;-60
2021/12/16 09:18:48;;;;;;;12.87;4.50;;;2.60;99.90;;;;;;5028466;28;20867;-61
2021/12/16 09:21:18;;;;;;;6.70;4.47;;;2.60;99.90;;;;;;5007313;28;20423;-61
2021/12/16 09:23:46;;;;;;;7.70;4.70;;;2.50;99.90;;;;;;4995268;28;20195;-61
2021/12/16 09:26:13;;;;;;;10.53;5.87;;;2.50;99.90;;;;;;5011519;28;20425;-61
2021/12/16 09:28:40;;;;;;;7.10;4.80;;;2.60;99.90;;;;;;5020970;28;20795;-61
2021/12/16 09:31:11;;;;;;;9.50;5.60;;;2.60;99.90;;;;;;5004584;28;20439;-61
2021/12/16 09:33:42;;;;;;;9.33;5.83;;;2.60;99.90;;;;;;5009238;28;20478;-61
2021/12/16 09:36:09;;;;;;;10.70;5.90;;;2.60;99.90;;;;;;5012250;28;20523;-63
2021/12/16 09:38:35;;;;;;;12.53;6.60;;;2.60;99.90;;;;;;5012557;28;20424;-61
2021/12/16 09:41:01;;;;;;;10.23;6.10;;;2.60;99.90;;;;;;5013552;28;21009;-61
2021/12/16 09:43:34;;;;;;;13.27;6.13;;;2.70;99.90;;;;;;5018828;28;20506;-60
2021/12/16 09:46:03;;;;;;;8.03;4.60;;;2.70;99.90;;;;;;5008512;28;20231;-61
2021/12/16 09:48:31;;;;;;;6.33;4.13;;;2.70;99.90;;;;;;5011759;28;20431;-61
2021/12/16 09:50:57;;;;;;;12.60;5.77;;;2.70;99.90;;;;;;5013007;28;20945;-63
2021/12/16 09:53:23;;;;;;;11.23;6.50;;;2.70;99.90;;;;;;5018705;28;20431;-61
2021/12/16 09:55:57;;;;;;;12.80;5.90;;;2.70;99.90;;;;;;5022109;28;20820;-61
2021/12/16 09:58:24;;;;;;;10.10;5.87;;;2.70;99.90;;;;;;5004916;28;20663;-61
2021/12/16 10:00:50;;;;;;;10.60;6.13;;;2.70;99.90;;;;;;5009064;28;20537;-62
2021/12/16 10:03:17;;;;;;;10.53;5.93;;;2.70;99.90;;;;;;5010176;28;20434;-59
2021/12/16 10:05:43;;;;;;;11.10;7.17;;;2.80;99.90;;;;;;5019347;28;20435;-62
2021/12/16 10:08:09;;;;;;;14.83;7.33;;;2.80;99.90;;;;;;5021771;28;20447;-62
2021/12/16 10:10:35;;;;;;;11.63;7.27;;;2.80;99.90;;;;;;5032652;28;20477;-62
2021/12/16 10:13:03;;;;;;;11.60;7.10;;;2.90;99.90;;;;;;5010684;28;20480;-59
2021/12/16 10:18:07;;;;;;;18.13;8.10;;;2.90;99.90;;;;;;5009089;28;20438;-61
2021/12/16 10:20:39;;;;;;;9.87;6.60;;;2.90;99.90;;;;;;5008292;28;20447;-62
2021/12/16 10:23:13;;;;;;;10.83;6.60;;;2.90;99.90;;;;;;4997954;28;20429;-62
2021/12/16 10:25:47;;;;;;;8.63;5.67;;;2.90;99.90;;;;;;5012131;28;20427;-63
2021/12/16 10:28:25;;;;;;;7.83;5.17;;;2.90;99.90;;;;;;5021639;28;20430;-61
2021/12/16 10:31:19;;;;;;;8.47;5.03;;;3.00;99.90;;;;;;5005453;28;20519;-60
2021/12/16 10:33:47;;;;;;;10.97;6.50;;;3.00;99.90;;;;;;5013741;28;20426;-61
2021/12/16 10:36:15;;;;;;;8.47;6.40;;;3.00;99.90;;;;;;5007660;28;20426;-62
2021/12/16 10:38:51;;;;;;;10.40;5.53;;;3.00;99.90;;;;;;5012710;28;20438;-60
2021/12/16 10:41:24;;;;;;;8.80;5.17;;;3.00;99.90;;;;;;5008144;28;20761;-61
2021/12/16 10:44:04;;;;;;;7.20;4.80;;;3.00;99.90;;;;;;5005933;28;20454;-61
2021/12/16 10:46:33;;;;;;;8.20;5.80;;;3.00;99.90;;;;;;4989970;28;20538;-61
2021/12/16 10:49:03;;;;;;;10.37;4.93;;;3.10;99.90;;;;;;5004448;28;20899;-61
2021/12/16 10:51:38;;;;;;;8.40;6.00;;;3.10;99.90;;;;;;5006079;28;20432;-63
2021/12/16 10:54:12;;;;;;;7.63;5.10;;;3.10;99.90;;;;;;4990219;28;20411;-61
2021/12/16 10:57:02;;;;;;;8.57;5.10;;;3.10;99.90;;;;;;5008260;28;20423;-60
2021/12/16 10:59:37;;;;;;;6.77;4.80;;;3.10;99.90;;;;;;5010214;28;20506;-61
2021/12/16 11:02:09;;;;;;;5.80;4.23;;;3.10;99.90;;;;;;5039598;28;20433;-61
2021/12/16 11:04:43;;;;;;;5.30;4.30;;;3.10;99.90;;;;;;5028980;28;20450;-60
2021/12/16 11:07:11;;;;;;;10.03;4.80;;;3.10;99.90;;;;;;5012696;28;20510;-61
2021/12/16 11:09:53;;;;;;;7.60;5.00;;;3.10;99.90;;;;;;5002838;28;20506;-61
2021/12/16 11:12:28;;;;;;;8.13;5.10;;;3.20;99.90;;;;;;5002185;28;20481;-61
2021/12/16 11:15:05;;;;;;;8.03;4.23;;;3.20;99.90;;;;;;5008633;28;20501;-61
2021/12/16 11:17:36;;;;;;;6.90;4.73;;;3.20;99.90;;;;;;5009167;28;20449;-61
2021/12/16 11:20:33;;;;;;;9.20;5.00;;;3.20;99.90;;;;;;4996638;28;20529;-59
2021/12/16 11:23:09;;;;;;;10.03;6.60;;;3.30;99.90;;;;;;4994907;28;20482;-61
2021/12/16 11:26:13;;;;;;;10.40;6.10;;;3.30;99.90;;;;;;5019084;28;20460;-61
2021/12/16 11:28:44;;;;;;;9.30;5.53;;;3.30;99.90;;;;;;4998603;28;20445;-60
2021/12/16 11:31:13;;;;;;;10.80;5.00;;;3.30;99.90;;;;;;5006213;28;20931;-61
2021/12/16 11:33:47;;;;;;;6.17;4.27;;;3.30;99.90;;;;;;5021547;28;20454;-61
2021/12/16 11:36:40;;;;;;;6.83;5.00;;;3.40;99.90;;;;;;5022443;28;20411;-59
2021/12/16 11:39:27;;;;;;;5.60;4.10;;;3.30;99.90;;;;;;4995144;28;20484;-61
2021/12/16 11:42:00;;;;;;;7.70;4.40;;;3.40;99.90;;;;;;5021121;28;20516;-61
2021/12/16 11:44:29;;;;;;;5.87;4.00;;;3.40;99.90;;;;;;5008776;28;20457;-62
2021/12/16 11:47:15;;;;;;;5.10;3.70;;;3.40;99.90;;;;;;5016621;28;20426;-61
2021/12/16 11:49:49;;;;;;;11.30;7.40;;;3.40;99.90;;;;;;4993410;28;20487;-61
2021/12/16 11:52:22;;;;;;;6.03;3.80;;;3.40;99.90;;;;;;4986593;28;20447;-61
2021/12/16 11:54:50;;;;;;;6.93;4.67;;;3.40;99.90;;;;;;4993394;28;20538;-61
2021/12/16 11:57:29;;;;;;;9.13;4.20;;;3.40;99.90;;;;;;5017609;28;20435;-61
2021/12/16 12:00:01;;;;;;;6.90;4.13;;;3.40;99.90;;;;;;5019465;28;20441;-61
2021/12/16 12:02:34;;;;;;;6.67;4.50;;;3.40;99.90;;;;;;5008115;28;20430;-61
2021/12/16 12:05:27;;;;;;;6.10;3.97;;;3.40;99.90;;;;;;4996368;28;20508;-61
2021/12/16 12:08:13;;;;;;;4.97;4.10;;;3.40;99.90;;;;;;5004503;28;20678;-61
2021/12/16 12:10:50;;;;;;;7.17;4.47;;;3.40;99.90;;;;;;5007148;28;20489;-61
2021/12/16 12:13:25;;;;;;;8.60;5.10;;;3.40;99.90;;;;;;4999376;28;20435;-59
2021/12/16 12:15:56;;;;;;;7.40;4.30;;;3.40;99.90;;;;;;5006860;28;20434;-66
2021/12/16 12:18:32;;;;;;;8.47;4.00;;;3.50;99.90;;;;;;5010510;28;21013;-62
2021/12/16 12:21:23;;;;;;;6.47;4.30;;;3.50;99.90;;;;;;5010393;28;20517;-63
2021/12/16 12:23:54;;;;;;;6.00;4.73;;;3.50;99.90;;;;;;5012500;28;20474;-61
2021/12/16 12:26:21;;;;;;;6.00;3.83;;;3.50;99.90;;;;;;5013023;28;20476;-61
2021/12/16 12:28:50;;;;;;;8.33;5.00;;;3.50;99.90;;;;;;5007737;28;20893;-62
2021/12/16 12:31:19;;;;;;;6.27;4.20;;;3.50;99.90;;;;;;5003466;28;20467;-60
2021/12/16 12:33:47;;;;;;;6.63;4.63;;;3.50;99.90;;;;;;5021744;28;20814;-60
2021/12/16 12:36:14;;;;;;;6.40;4.37;;;3.50;99.90;;;;;;5010577;28;20434;-61
2021/12/16 12:38:41;;;;;;;6.83;4.57;;;3.50;99.90;;;;;;5024682;28;20460;-61
2021/12/16 12:41:08;;;;;;;7.50;4.57;;;3.60;99.90;;;;;;5012313;28;20521;-61
2021/12/16 12:43:34;;;;;;;6.17;4.60;;;3.60;99.90;;;;;;5010878;28;20423;-62
2021/12/16 12:46:02;;;;;;;8.17;4.50;;;3.70;99.90;;;;;;5008800;28;20709;-56
2021/12/16 12:48:27;;;;;;;5.13;4.07;;;3.70;99.90;;;;;;4998238;28;20467;-61
2021/12/16 12:50:57;;;;;;;6.80;4.93;;;3.70;99.90;;;;;;5000164;28;20490;-56
2021/12/16 12:53:48;;;;;;;6.53;4.37;;;3.70;99.90;;;;;;5006078;28;20970;-62
2021/12/16 12:56:19;;;;;;;8.20;4.83;;;3.80;99.90;;;;;;5009334;28;20439;-62
2021/12/16 12:58:59;;;;;;;9.63;5.40;;;3.80;99.90;;;;;;5011662;28;20418;-61
2021/12/16 13:01:54;;;;;;;8.10;5.60;;;3.80;99.90;;;;;;5011196;28;20435;-61
2021/12/16 13:04:31;;;;;;;5.07;4.13;;;3.80;99.90;;;;;;5000546;28;20987;-61
2021/12/16 13:06:59;;;;;;;5.80;4.30;;;3.80;99.90;;;;;;5005378;28;20705;-61
2021/12/16 13:09:27;;;;;;;5.77;4.13;;;3.80;99.90;;;;;;5010262;28;20466;-62
2021/12/16 13:11:53;;;;;;;6.13;4.50;;;3.90;99.90;;;;;;5006658;28;20443;-61
2021/12/16 13:14:36;;;;;;;7.10;4.23;;;3.90;99.90;;;;;;4998655;28;20436;-62
2021/12/16 13:28:55;;;;;;;9.60;5.50;;;3.90;99.90;;;;;;5009524;28;20517;-62
2021/12/16 13:31:43;;;;;;;7.37;5.07;;;3.90;99.90;;;;;;5007112;28;20424;-62
2021/12/16 13:34:33;;;;;;;8.83;5.73;;;3.90;99.90;;;;;;5005668;28;20476;-61
2021/12/16 13:37:06;;;;;;;7.37;4.70;;;3.90;99.90;;;;;;5008135;28;20418;-62
2021/12/16 13:39:32;;;;;;;7.47;4.97;;;3.90;99.90;;;;;;5009298;28;20478;-61
2021/12/16 13:42:05;;;;;;;7.03;4.57;;;3.90;99.90;;;;;;4994850;28;20435;-61
2021/12/16 13:44:55;;;;;;;6.07;4.80;;;3.90;99.90;;;;;;5001663;28;20631;-62
2021/12/16 13:47:48;;;;;;;6.93;4.43;;;3.90;99.90;;;;;;4991238;28;20401;-61
2021/12/16 14:01:59;;;;;;;12.07;7.07;;;3.80;99.90;;;;;;5010004;28;20426;-61
2021/12/16 14:10:17;;;;;;;6.80;5.20;;;3.80;99.90;;;;;;5009403;28;20533;-61
2021/12/16 14:16:21;;;;;;;8.30;4.80;;;3.80;99.90;;;;;;5014986;28;20451;-61
2021/12/16 14:25:10;;;;;;;9.40;4.90;;;3.80;99.90;;;;;;4996686;28;20522;-61
2021/12/16 14:42:46;;;;;;;6.90;4.70;;;3.80;99.90;;;;;;5004961;28;20837;-61
2021/12/16 14:50:47;;;;;;;9.23;5.60;;;3.80;99.90;;;;;;4996796;28;20432;-61
2021/12/16 14:53:19;;;;;;;7.67;4.93;;;3.80;99.90;;;;;;4998964;28;21059;-61
2021/12/16 14:55:46;;;;;;;6.60;4.70;;;3.80;99.90;;;;;;5004209;28;20438;-61
2021/12/16 14:58:12;;;;;;;6.57;4.63;;;3.80;99.90;;;;;;4991332;28;20451;-61
2021/12/16 15:00:47;;;;;;;6.70;4.50;;;3.80;99.90;;;;;;4991159;28;20432;-61
2021/12/16 15:03:16;;;;;;;6.90;4.57;;;3.80;99.90;;;;;;5008374;28;20685;-60
2021/12/16 15:05:54;;;;;;;6.70;4.37;;;3.70;99.90;;;;;;4988327;28;20456;-61
2021/12/16 15:08:29;;;;;;;5.90;4.47;;;3.80;99.90;;;;;;5001456;28;20435;-60
2021/12/16 15:10:57;;;;;;;7.50;4.43;;;3.70;99.90;;;;;;5042782;23;20483;-59
2021/12/16 15:13:32;;;;;;;6.07;4.53;;;3.80;99.90;;;;;;5019137;28;20427;-58
2021/12/16 15:38:17;;;;;;;7.83;4.80;;;3.70;99.90;;;;;;4994855;28;20478;-58
2021/12/16 15:42:45;;;;;;;7.33;4.67;;;3.70;99.90;;;;;;5000950;28;20473;-56
2021/12/16 15:43:49;;;;;;;9.47;4.97;;;3.70;99.90;;;;;;5001268;28;20426;-57
2021/12/16 15:46:15;;;;;;;10.47;4.60;;;3.70;99.90;;;;;;5003061;28;20423;-57
2021/12/16 15:48:44;;;;;;;6.43;4.30;;;3.60;99.90;;;;;;4994502;28;20462;-59
2021/12/16 15:51:11;;;;;;;5.87;4.20;;;3.60;99.90;;;;;;5004204;28;20211;-62
2021/12/16 15:53:40;;;;;;;8.20;5.27;;;3.60;99.90;;;;;;4998732;28;20426;-60
2021/12/16 15:56:13;;;;;;;9.57;4.80;;;3.60;99.90;;;;;;4993781;28;20533;-59
2021/12/16 15:58:45;;;;;;;9.83;5.07;;;3.60;99.90;;;;;;4988329;28;20466;-63
2021/12/16 16:01:15;;;;;;;9.33;4.60;;;3.50;99.90;;;;;;4988990;28;21168;-58
2021/12/16 16:03:45;;;;;;;7.30;5.03;;;3.50;99.90;;;;;;4994246;28;20430;-56
2021/12/16 16:06:13;;;;;;;8.17;5.00;;;3.50;99.90;;;;;;4988199;28;20442;-59
2021/12/16 16:08:46;;;;;;;8.30;4.70;;;3.50;99.90;;;;;;5003259;28;20433;-60
2021/12/16 16:11:14;;;;;;;10.10;5.60;;;3.50;99.90;;;;;;4996180;28;20475;-63
2021/12/16 16:13:50;;;;;;;10.47;5.53;;;3.60;99.90;;;;;;5011471;28;20443;-58
2021/12/16 16:16:20;;;;;;;7.63;5.20;;;3.60;99.90;;;;;;4992561;28;20434;-58
2021/12/16 16:19:00;;;;;;;10.93;5.20;;;3.50;99.90;;;;;;4994011;28;20838;-60
2021/12/16 16:21:30;;;;;;;6.67;4.20;;;3.50;99.90;;;;;;4994769;28;20461;-60
2021/12/16 16:24:03;;;;;;;10.83;5.70;;;3.60;99.90;;;;;;4981885;28;20501;-60
2021/12/16 16:26:30;;;;;;;10.87;6.13;;;3.50;99.90;;;;;;4995875;28;20435;-59
2021/12/16 16:29:06;;;;;;;9.90;5.47;;;3.50;99.90;;;;;;5005039;28;20427;-64
2021/12/16 16:31:34;;;;;;;8.03;5.27;;;3.50;99.90;;;;;;5019023;28;20491;-69
2021/12/16 16:34:01;;;;;;;8.73;5.60;;;3.50;99.90;;;;;;5007571;28;20462;-61
2021/12/16 16:36:29;;;;;;;11.17;6.37;;;3.50;99.90;;;;;;4993467;28;20535;-63
2021/12/16 16:39:07;;;;;;;9.90;6.50;;;3.50;99.90;;;;;;4998729;28;20521;-56
2021/12/16 16:41:42;;;;;;;10.00;6.57;;;3.50;99.90;;;;;;5002462;28;21029;-63
2021/12/16 16:44:12;;;;;;;11.83;6.67;;;3.50;99.90;;;;;;4996061;28;20462;-61
2021/12/16 16:46:55;;;;;;;7.47;5.57;;;3.50;99.90;;;;;;5019000;28;20548;-60
2021/12/16 16:49:41;;;;;;;8.57;5.60;;;3.50;99.90;;;;;;5006237;28;20488;-61
2021/12/16 16:52:12;;;;;;;11.67;5.43;;;3.50;99.90;;;;;;4999078;28;20567;-60
2021/12/16 16:54:50;;;;;;;8.27;4.97;;;3.40;99.90;;;;;;5000302;28;20449;-61
2021/12/16 16:57:26;;;;;;;8.17;5.60;;;3.40;99.90;;;;;;4998287;28;20439;-60
2021/12/16 16:59:59;;;;;;;12.63;6.53;;;3.40;99.90;;;;;;4989881;28;20459;-60
2021/12/16 17:02:39;;;;;;;8.50;5.90;;;3.40;99.90;;;;;;4995095;28;20476;-59
2021/12/16 17:05:31;;;;;;;10.73;6.50;;;3.40;99.90;;;;;;5012888;28;20457;-60
2021/12/16 17:08:12;;;;;;;11.17;5.97;;;3.40;99.90;;;;;;4997006;28;20438;-57